createdAt,value
2023-06-17T00:00:29.657Z,71.95
2023-06-17T00:03:31.684Z,72.32
2023-06-17T00:06:33.949Z,71.86
2023-06-17T00:09:36.887Z,70.43
2023-06-17T00:12:39.486Z,69.68
2023-06-17T00:15:43.668Z,69.66
2023-06-17T00:18:49.515Z,69.20
2023-06-17T00:21:54.053Z,70.30
2023-06-17T00:24:56.251Z,68.91
2023-06-17T00:27:58.655Z,68.40
2023-06-17T00:31:00.812Z,67.29
2023-06-17T00:34:02.749Z,67.10
2023-06-17T00:37:06.184Z,66.97
2023-06-17T00:40:11.611Z,66.79
2023-06-17T00:43:14.440Z,66.29
2023-06-17T00:46:41.202Z,66.73
2023-06-17T00:49:47.394Z,65.94
2023-06-17T00:52:53.729Z,65.87
2023-06-17T00:55:55.991Z,66.50
2023-06-17T00:59:01.885Z,66.51
2023-06-17T01:02:04.696Z,65.83
2023-06-17T01:05:13.910Z,64.79
2023-06-17T01:08:54.762Z,64.61
2023-06-17T01:11:58.860Z,64.18
2023-06-17T01:15:02.998Z,64.28
2023-06-17T01:18:08.482Z,64.37
2023-06-17T01:21:10.905Z,64.83
2023-06-17T01:24:15.050Z,63.96
2023-06-17T01:27:20.231Z,64.56
2023-06-17T01:30:23.413Z,64.65
2023-06-17T01:33:26.589Z,64.82
2023-06-17T01:36:38.197Z,64.59
2023-06-17T01:39:46.079Z,64.11
2023-06-17T01:42:54.115Z,65.57
2023-06-17T01:45:57.929Z,67.04
2023-06-17T01:49:00.561Z,67.38
2023-06-17T01:52:04.259Z,67.54
2023-06-17T01:55:07.758Z,68.06
2023-06-17T01:58:10.161Z,67.98
2023-06-17T02:01:13.733Z,68.05
2023-06-17T02:04:16.148Z,68.20
2023-06-17T02:07:19.325Z,67.71
2023-06-17T02:10:23.906Z,67.15
2023-06-17T02:13:26.346Z,66.46
2023-06-17T02:16:28.639Z,66.59
2023-06-17T02:19:35.587Z,67.46
2023-06-17T02:22:37.973Z,67.46
2023-06-17T02:25:41.236Z,66.61
2023-06-17T02:28:45.011Z,66.86
2023-06-17T02:31:47.478Z,67.77
2023-06-17T02:34:50.785Z,67.35
2023-06-17T02:37:55.634Z,67.46
2023-06-17T02:40:58.018Z,66.71
2023-06-17T02:44:00.425Z,66.44
2023-06-17T02:47:04.575Z,66.22
2023-06-17T02:50:08.067Z,67.74
2023-06-17T02:53:10.239Z,67.38
2023-06-17T02:56:12.535Z,67.29
2023-06-17T02:59:16.387Z,68.00
2023-06-17T03:02:20.812Z,66.62
2023-06-17T03:05:25.816Z,66.88
2023-06-17T03:08:30.056Z,67.02
2023-06-17T03:11:32.105Z,67.54
2023-06-17T03:14:34.844Z,67.64
2023-06-17T03:17:39.386Z,67.86
2023-06-17T03:20:44.359Z,67.73
2023-06-17T03:23:47.112Z,66.87
2023-06-17T03:26:49.379Z,67.67
2023-06-17T03:29:51.534Z,67.66
2023-06-17T03:32:54.817Z,67.11
2023-06-17T03:35:58.335Z,67.12
2023-06-17T03:39:00.380Z,67.55
2023-06-17T03:42:02.332Z,66.83
2023-06-17T03:45:06.332Z,66.98
2023-06-17T03:48:08.909Z,66.37
2023-06-17T03:51:14.135Z,65.87
2023-06-17T03:54:16.268Z,65.30
2023-06-17T03:57:19.516Z,65.31
2023-06-17T04:00:23.249Z,65.38
2023-06-17T04:03:26.533Z,65.01
2023-06-17T04:06:30.206Z,64.96
2023-06-17T04:09:32.844Z,64.69
2023-06-17T04:12:39.106Z,64.96
2023-06-17T04:15:42.477Z,64.26
2023-06-17T04:18:45.781Z,64.49
2023-06-17T04:21:49.986Z,63.41
2023-06-17T04:24:57.733Z,63.87
2023-06-17T04:28:02.644Z,63.90
2023-06-17T04:31:06.073Z,62.72
2023-06-17T04:34:08.915Z,62.55
2023-06-17T04:37:11.157Z,63.10
2023-06-17T04:40:14.445Z,62.45
2023-06-17T04:43:16.522Z,62.64
2023-06-17T04:46:20.573Z,61.11
2023-06-17T04:49:23.802Z,61.11
2023-06-17T04:52:27.048Z,61.01
2023-06-17T04:55:29.818Z,60.94
2023-06-17T04:58:31.844Z,60.74
2023-06-17T05:01:35.343Z,60.16
2023-06-17T05:04:37.370Z,59.97
2023-06-17T05:07:39.730Z,59.28
2023-06-17T05:10:41.639Z,59.19
2023-06-17T05:13:43.861Z,58.44
2023-06-17T05:16:46.895Z,58.48
2023-06-17T05:19:51.037Z,58.37
2023-06-17T05:22:53.118Z,58.28
2023-06-17T05:25:55.311Z,57.91
2023-06-17T05:28:58.342Z,58.07
2023-06-17T05:32:01.927Z,57.92
2023-06-17T05:35:04.387Z,58.09
2023-06-17T05:38:09.042Z,57.46
2023-06-17T05:41:11.207Z,57.19
2023-06-17T05:44:13.314Z,57.06
2023-06-17T05:47:15.409Z,56.92
2023-06-17T05:50:18.143Z,56.76
2023-06-17T05:53:22.530Z,56.90
2023-06-17T05:56:24.729Z,56.90
2023-06-17T05:59:29.963Z,56.73
2023-06-17T06:02:32.001Z,56.71
2023-06-17T06:05:34.013Z,56.36
2023-06-17T06:08:36.530Z,55.83
2023-06-17T06:11:38.627Z,55.94
2023-06-17T06:14:41.504Z,55.58
2023-06-17T06:17:45.608Z,55.30
2023-06-17T06:20:50.261Z,53.70
2023-06-17T06:23:53.934Z,48.52
2023-06-17T06:26:58.717Z,44.58
2023-06-17T06:30:01.403Z,44.21
2023-06-17T06:33:05.116Z,42.83
2023-06-17T06:36:11.547Z,43.90
2023-06-17T06:39:15.259Z,43.27
2023-06-17T06:42:17.892Z,45.17
2023-06-17T06:45:21.364Z,48.16
2023-06-17T06:48:29.594Z,48.69
2023-06-17T06:51:32.451Z,50.35
2023-06-17T06:54:34.734Z,51.17
2023-06-17T06:57:37.274Z,51.22
2023-06-17T07:00:40.837Z,51.19
2023-06-17T07:03:45.552Z,51.50
2023-06-17T07:06:47.974Z,51.84
2023-06-17T07:09:51.242Z,50.70
2023-06-17T07:12:53.571Z,50.79
2023-06-17T07:15:55.642Z,50.94
2023-06-17T07:18:57.862Z,51.52
2023-06-17T07:22:00.171Z,50.69
2023-06-17T07:25:02.638Z,49.34
2023-06-17T07:28:05.046Z,47.59
2023-06-17T07:31:07.921Z,45.26
2023-06-17T07:34:10.071Z,44.58
2023-06-17T07:37:12.057Z,44.74
2023-06-17T07:40:14.833Z,41.81
2023-06-17T07:43:17.227Z,45.98
2023-06-17T07:46:19.780Z,44.87
2023-06-17T07:49:22.042Z,45.78
2023-06-17T07:52:25.177Z,42.53
2023-06-17T07:55:27.905Z,45.09
2023-06-17T07:58:29.866Z,43.90
2023-06-17T08:01:33.699Z,42.26
2023-06-17T08:04:36.039Z,40.71
2023-06-17T08:07:38.147Z,40.63
2023-06-17T08:10:40.354Z,40.51
2023-06-17T08:13:42.294Z,39.91
2023-06-17T08:16:48.222Z,42.27
2023-06-17T08:19:50.303Z,44.26
2023-06-17T08:22:52.647Z,43.77
2023-06-17T08:25:54.813Z,44.97
2023-06-17T08:28:56.858Z,44.85
2023-06-17T08:31:59.177Z,44.41
2023-06-17T08:35:06.679Z,44.26
2023-06-17T08:38:08.519Z,45.10
2023-06-17T08:41:10.750Z,43.89
2023-06-17T08:44:14.945Z,43.13
2023-06-17T08:47:17.955Z,44.84
2023-06-17T08:50:20.572Z,44.73
2023-06-17T08:53:24.885Z,46.79
2023-06-17T08:56:26.840Z,47.16
2023-06-17T08:59:50.291Z,46.92
2023-06-17T09:02:56.027Z,46.18
2023-06-17T09:05:59.075Z,47.16
2023-06-17T09:09:01.922Z,46.48
2023-06-17T09:12:09.848Z,46.70
2023-06-17T09:15:21.784Z,47.00
2023-06-17T09:18:24.349Z,46.83
2023-06-17T09:21:28.347Z,47.18
2023-06-17T09:24:32.256Z,47.70
2023-06-17T09:27:35.211Z,47.33
2023-06-17T09:30:38.603Z,45.88
2023-06-17T09:33:44.969Z,46.25
2023-06-17T09:36:53.468Z,46.26
2023-06-17T09:39:56.120Z,45.64
2023-06-17T09:43:16.327Z,44.72
2023-06-17T09:46:31.163Z,44.81
2023-06-17T09:49:36.256Z,45.06
2023-06-17T09:52:39.537Z,45.98
2023-06-17T09:55:44.841Z,44.44
2023-06-17T09:58:48.818Z,45.09
2023-06-17T10:01:52.026Z,43.87
2023-06-17T10:04:55.194Z,44.11
2023-06-17T10:07:59.086Z,44.65
2023-06-17T10:11:02.251Z,44.05
2023-06-17T10:14:09.256Z,45.26
2023-06-17T10:17:12.809Z,44.15
2023-06-17T10:20:16.905Z,45.18
2023-06-17T10:23:23.489Z,43.21
2023-06-17T10:26:25.825Z,43.60
2023-06-17T10:29:28.815Z,43.32
2023-06-17T10:32:31.605Z,41.54
2023-06-17T10:35:40.982Z,41.87
2023-06-17T10:38:53.359Z,42.37
2023-06-17T10:42:03.974Z,41.56
2023-06-17T10:45:14.043Z,39.74
2023-06-17T10:48:25.196Z,40.96
2023-06-17T10:54:36.467Z,40.57
2023-06-17T10:57:38.726Z,41.42
2023-06-17T11:00:40.913Z,40.83
2023-06-17T11:03:43.255Z,40.72
2023-06-17T11:06:49.286Z,40.74
2023-06-17T11:09:54.578Z,40.42
2023-06-17T11:12:57.179Z,41.14
2023-06-17T11:16:03.433Z,41.50
2023-06-17T11:19:10.798Z,41.60
2023-06-17T11:22:14.490Z,41.11
2023-06-17T11:25:20.903Z,41.81
2023-06-17T11:28:28.937Z,41.21
2023-06-17T11:31:37.394Z,41.87
2023-06-17T11:34:43.152Z,41.99
2023-06-17T11:37:48.196Z,41.65
2023-06-17T11:40:56.907Z,40.18
2023-06-17T11:43:59.544Z,40.02
2023-06-17T11:47:10.422Z,40.18
2023-06-17T11:50:13.269Z,42.11
2023-06-17T11:53:15.730Z,40.70
2023-06-17T11:56:21.631Z,40.80
2023-06-17T11:59:24.571Z,42.61
2023-06-17T12:02:35.393Z,41.15
2023-06-17T12:05:39.697Z,42.30
2023-06-17T12:08:44.202Z,42.12
2023-06-17T12:11:47.231Z,41.04
2023-06-17T12:14:50.430Z,41.12
2023-06-17T12:17:52.800Z,40.78
2023-06-17T12:20:56.502Z,41.23
2023-06-17T12:23:58.864Z,41.32
2023-06-17T12:27:01.811Z,40.80
2023-06-17T12:30:06.047Z,40.35
2023-06-17T12:33:08.509Z,39.86
2023-06-17T12:36:11.435Z,40.45
2023-06-17T12:39:13.824Z,40.25
2023-06-17T12:42:18.507Z,40.06
2023-06-17T12:45:22.336Z,40.55
2023-06-17T12:48:26.495Z,41.26
2023-06-17T12:51:29.684Z,41.57
2023-06-17T12:54:32.673Z,40.92
2023-06-17T12:57:35.373Z,40.09
2023-06-17T13:00:38.495Z,40.43
2023-06-17T13:03:41.592Z,40.47
2023-06-17T13:06:54.456Z,39.92
2023-06-17T13:09:59.087Z,39.48
2023-06-17T13:13:02.038Z,39.83
2023-06-17T13:16:05.628Z,40.37
2023-06-17T13:19:09.723Z,40.42
2023-06-17T13:22:15.499Z,40.11
2023-06-17T13:25:23.056Z,39.33
2023-06-17T13:28:28.278Z,38.32
2023-06-17T13:31:31.158Z,39.08
2023-06-17T13:34:34.210Z,39.38
2023-06-17T13:37:37.423Z,39.06
2023-06-17T13:40:40.150Z,39.06
2023-06-17T13:43:48.441Z,38.30
2023-06-17T13:46:51.212Z,38.39
2023-06-17T13:49:53.991Z,38.73
2023-06-17T13:52:56.494Z,38.18
2023-06-17T13:56:02.401Z,37.91
2023-06-17T13:59:04.540Z,39.22
2023-06-17T14:02:19.342Z,38.57
2023-06-17T14:05:22.554Z,38.40
2023-06-17T14:08:25.689Z,39.08
2023-06-17T14:11:31.506Z,39.26
2023-06-17T14:14:34.041Z,37.86
2023-06-17T14:17:36.886Z,38.07
2023-06-17T14:20:43.896Z,37.58
2023-06-17T14:23:54.619Z,37.78
2023-06-17T14:27:15.705Z,38.29
2023-06-17T14:30:18.180Z,38.00
2023-06-17T14:33:21.965Z,38.05
2023-06-17T14:36:24.593Z,38.12
2023-06-17T14:39:27.181Z,38.61
2023-06-17T14:42:32.807Z,37.91
2023-06-17T14:45:35.600Z,37.97
2023-06-17T14:48:38.664Z,38.52
2023-06-17T14:51:41.849Z,38.58
2023-06-17T14:54:44.824Z,39.10
2023-06-17T14:57:47.862Z,38.63
2023-06-17T15:00:53.562Z,38.26
2023-06-17T15:04:00.104Z,37.70
2023-06-17T15:07:06.289Z,37.33
2023-06-17T15:10:09.638Z,37.22
2023-06-17T15:13:12.572Z,37.29
2023-06-17T15:16:16.786Z,37.32
2023-06-17T15:19:19.610Z,36.80
2023-06-17T15:22:25.696Z,36.46
2023-06-17T15:25:28.560Z,37.07
2023-06-17T15:28:31.144Z,37.06
2023-06-17T15:31:34.680Z,36.80
2023-06-17T15:34:37.304Z,36.90
2023-06-17T15:37:39.836Z,37.04
2023-06-17T15:40:42.268Z,36.59
2023-06-17T15:43:44.734Z,37.03
2023-06-17T15:46:47.693Z,36.97
2023-06-17T15:49:50.890Z,37.39
2023-06-17T15:52:53.541Z,37.93
2023-06-17T15:55:56.621Z,37.74
2023-06-17T15:59:01.633Z,38.28
2023-06-17T16:02:04.377Z,38.50
2023-06-17T16:05:07.188Z,38.76
2023-06-17T16:08:09.326Z,38.90
2023-06-17T16:11:11.895Z,38.75
2023-06-17T16:14:14.043Z,38.81
2023-06-17T16:17:16.466Z,39.13
2023-06-17T16:20:19.188Z,39.09
2023-06-17T16:23:22.056Z,38.78
2023-06-17T16:26:25.337Z,38.85
2023-06-17T16:29:33.994Z,39.33
2023-06-17T16:32:36.330Z,39.48
2023-06-17T16:35:42.176Z,39.05
2023-06-17T16:38:44.356Z,39.10
2023-06-17T16:41:49.994Z,39.30
2023-06-17T16:44:52.361Z,39.70
2023-06-17T16:47:54.706Z,39.76
2023-06-17T16:50:56.869Z,39.87
2023-06-17T16:54:01.799Z,39.95
2023-06-17T16:57:06.931Z,40.18
2023-06-17T17:00:09.869Z,39.56
2023-06-17T17:03:12.421Z,39.38
2023-06-17T17:06:14.684Z,39.11
2023-06-17T17:09:16.783Z,39.26
2023-06-17T17:12:18.931Z,39.47
2023-06-17T17:15:22.774Z,39.52
2023-06-17T17:18:28.819Z,39.47
2023-06-17T17:21:31.042Z,39.75
2023-06-17T17:24:33.336Z,39.70
2023-06-17T17:27:35.461Z,40.20
2023-06-17T17:30:38.155Z,39.95
2023-06-17T17:33:40.411Z,40.32
2023-06-17T17:36:42.964Z,40.96
2023-06-17T17:39:46.876Z,40.82
2023-06-17T17:42:53.745Z,41.13
2023-06-17T17:45:56.571Z,41.45
2023-06-17T17:48:59.542Z,41.42
2023-06-17T17:52:02.949Z,41.90
2023-06-17T17:55:05.822Z,42.21
2023-06-17T17:58:08.515Z,42.32
2023-06-17T18:01:10.952Z,42.41
2023-06-17T18:04:16.998Z,42.72
2023-06-17T18:07:22.685Z,42.58
2023-06-17T18:10:25.288Z,43.09
2023-06-17T18:13:28.554Z,42.87
2023-06-17T18:16:31.685Z,42.94
2023-06-17T18:19:34.116Z,43.05
2023-06-17T18:22:38.307Z,42.82
2023-06-17T18:25:40.983Z,42.63
2023-06-17T18:28:43.645Z,42.66
2023-06-17T18:31:46.404Z,42.50
2023-06-17T18:34:49.677Z,42.90
2023-06-17T18:37:52.145Z,42.90
2023-06-17T18:40:54.530Z,43.23
2023-06-17T18:43:56.960Z,43.57
2023-06-17T18:47:01.351Z,43.72
2023-06-17T18:50:04.288Z,43.29
2023-06-17T18:53:06.699Z,43.16
2023-06-17T18:56:09.264Z,43.22
2023-06-17T18:59:12.130Z,43.44
2023-06-17T19:02:14.446Z,43.68
2023-06-17T19:05:16.952Z,43.79
2023-06-17T19:08:19.614Z,43.84
2023-06-17T19:11:24.856Z,43.65
2023-06-17T19:14:27.929Z,43.95
2023-06-17T19:17:30.513Z,44.06
2023-06-17T19:20:33.278Z,44.19
2023-06-17T19:23:35.708Z,44.37
2023-06-17T19:26:38.383Z,44.52
2023-06-17T19:29:41.050Z,44.72
2023-06-17T19:32:43.659Z,44.73
2023-06-17T19:35:46.886Z,44.66
2023-06-17T19:38:49.843Z,44.79
2023-06-17T19:41:52.821Z,44.75
2023-06-17T19:44:58.256Z,45.03
2023-06-17T19:48:05.514Z,44.92
2023-06-17T19:51:08.418Z,45.45
2023-06-17T19:54:10.759Z,45.61
2023-06-17T19:57:13.315Z,45.98
2023-06-17T20:00:16.326Z,45.87
2023-06-17T20:03:18.844Z,46.16
2023-06-17T20:06:21.956Z,46.46
2023-06-17T20:09:25.223Z,46.76
2023-06-17T20:12:27.480Z,46.84
2023-06-17T20:15:31.028Z,47.27
2023-06-17T20:18:33.111Z,47.84
2023-06-17T20:21:35.446Z,48.18
2023-06-17T20:24:40.383Z,48.50
2023-06-17T20:27:44.993Z,49.04
2023-06-17T20:30:47.263Z,49.33
2023-06-17T20:33:50.139Z,49.62
2023-06-17T20:36:53.928Z,49.83
2023-06-17T20:39:57.272Z,50.16
2023-06-17T20:42:59.468Z,50.54
2023-06-17T20:46:03.016Z,50.53
2023-06-17T20:49:05.217Z,50.69
2023-06-17T20:52:08.034Z,51.11
2023-06-17T20:55:10.695Z,51.23
2023-06-17T20:58:13.249Z,51.31
2023-06-17T21:01:18.560Z,51.76
2023-06-17T21:04:23.808Z,52.19
2023-06-17T21:07:26.300Z,52.32
2023-06-17T21:10:30.156Z,52.55
2023-06-17T21:13:32.520Z,53.11
2023-06-17T21:16:35.622Z,53.01
2023-06-17T21:19:38.106Z,53.34
2023-06-17T21:22:40.353Z,53.10
2023-06-17T21:25:46.460Z,52.90
2023-06-17T21:28:48.893Z,52.94
2023-06-17T21:31:51.283Z,53.02
2023-06-17T21:34:53.646Z,52.75
2023-06-17T21:37:56.419Z,52.75
2023-06-17T21:40:58.968Z,52.75
2023-06-17T21:44:01.348Z,52.94
2023-06-17T21:47:03.816Z,52.89
2023-06-17T21:50:06.499Z,52.75
2023-06-17T21:53:08.557Z,52.34
2023-06-17T21:56:11.939Z,52.39
2023-06-17T21:59:15.624Z,52.37
2023-06-17T22:02:17.714Z,52.51
2023-06-17T22:05:19.698Z,52.41
2023-06-17T22:08:27.527Z,52.52
2023-06-17T22:11:36.360Z,52.43
2023-06-17T22:14:38.664Z,52.08
2023-06-17T22:17:41.226Z,52.03
2023-06-17T22:20:43.219Z,51.92
2023-06-17T22:23:45.478Z,52.03
2023-06-17T22:26:47.494Z,51.49
2023-06-17T22:29:49.745Z,51.30
2023-06-17T22:32:52.141Z,54.48
2023-06-17T22:35:54.107Z,56.38
2023-06-17T22:38:56.317Z,57.17
2023-06-17T22:41:58.410Z,57.53
2023-06-17T22:45:00.602Z,58.23
2023-06-17T22:48:03.944Z,58.80
2023-06-17T22:51:05.959Z,59.44
2023-06-17T22:54:08.148Z,58.99
2023-06-17T22:57:13.168Z,59.14
2023-06-17T23:00:15.675Z,59.04
2023-06-17T23:03:17.827Z,58.81
2023-06-17T23:06:20.028Z,58.63
2023-06-17T23:09:22.496Z,58.48
2023-06-17T23:12:24.901Z,58.00
2023-06-17T23:15:27.156Z,57.58
2023-06-17T23:18:29.530Z,57.20
2023-06-17T23:21:34.143Z,57.18
2023-06-17T23:24:36.986Z,57.33
2023-06-17T23:27:39.154Z,56.87
2023-06-17T23:30:41.357Z,56.53
2023-06-17T23:33:44.221Z,56.50
2023-06-17T23:36:46.532Z,56.77
2023-06-17T23:39:49.049Z,56.45
2023-06-17T23:42:51.771Z,56.50
2023-06-17T23:45:56.162Z,55.76
2023-06-17T23:48:58.517Z,55.99
2023-06-17T23:52:02.956Z,55.73
2023-06-17T23:55:05.445Z,55.71
2023-06-17T23:58:07.407Z,55.69
